createdAt,value
2017-10-18T00:00:22.572Z,1011.2
2017-10-18T00:00:48.700Z,1011.19
2017-10-18T00:01:14.819Z,1011.2
2017-10-18T00:01:40.948Z,1011.23
2017-10-18T00:02:07.076Z,1011.2
2017-10-18T00:02:33.207Z,1011.22
2017-10-18T00:02:59.331Z,1011.19
2017-10-18T00:03:25.461Z,1011.22
2017-10-18T00:03:51.584Z,1011.22
2017-10-18T00:04:17.699Z,1011.23
2017-10-18T00:04:43.827Z,1011.23
2017-10-18T00:05:09.943Z,1011.26
2017-10-18T00:05:36.065Z,1011.26
2017-10-18T00:06:02.187Z,1011.24
2017-10-18T00:06:28.315Z,1011.23
2017-10-18T00:06:54.440Z,1011.25
2017-10-18T00:07:20.565Z,1011.27
2017-10-18T00:07:46.689Z,1011.25
2017-10-18T00:08:12.810Z,1011.25
2017-10-18T00:08:38.944Z,1011.23
2017-10-18T00:09:05.054Z,1011.23
2017-10-18T00:09:31.185Z,1011.25
2017-10-18T00:09:57.322Z,1011.24
2017-10-18T00:10:23.447Z,1011.23
2017-10-18T00:10:49.581Z,1011.25
2017-10-18T00:11:15.699Z,1011.23
2017-10-18T00:11:41.826Z,1011.19
2017-10-18T00:12:07.955Z,1011.22
2017-10-18T00:12:34.079Z,1011.19
2017-10-18T00:13:00.198Z,1011.18
2017-10-18T00:13:26.329Z,1011.18
2017-10-18T00:13:52.449Z,1011.18
2017-10-18T00:14:18.570Z,1011.16
2017-10-18T00:14:44.722Z,1011.17
2017-10-18T00:15:10.841Z,1011.16
2017-10-18T00:15:36.967Z,1011.14
2017-10-18T00:16:03.089Z,1011.15
2017-10-18T00:16:29.206Z,1011.15
2017-10-18T00:16:55.334Z,1011.16
2017-10-18T00:17:21.479Z,1011.14
2017-10-18T00:17:47.595Z,1011.17
2017-10-18T00:18:13.717Z,1011.12
2017-10-18T00:18:39.847Z,1011.15
2017-10-18T00:19:05.965Z,1011.15
2017-10-18T00:19:32.102Z,1011.12
2017-10-18T00:19:58.210Z,1011.11
2017-10-18T00:20:24.334Z,1011.16
2017-10-18T00:20:50.461Z,1011.14
2017-10-18T00:21:16.586Z,1011.15
2017-10-18T00:21:42.723Z,1011.12
2017-10-18T00:22:08.852Z,1011.13
2017-10-18T00:22:34.972Z,1011.12
2017-10-18T00:23:01.113Z,1011.14
2017-10-18T00:23:27.233Z,1011.11
2017-10-18T00:23:53.358Z,1011.09
2017-10-18T00:24:19.485Z,1011.07
2017-10-18T00:24:45.629Z,1011.11
2017-10-18T00:25:11.748Z,1011.06
2017-10-18T00:25:37.874Z,1011.12
2017-10-18T00:26:04.004Z,1011.09
2017-10-18T00:26:30.129Z,1011.08
2017-10-18T00:26:56.243Z,1011.1
2017-10-18T00:27:22.372Z,1011.11
2017-10-18T00:27:48.506Z,1011.08
2017-10-18T00:28:14.618Z,1011.09
2017-10-18T00:28:40.746Z,1011.11
2017-10-18T00:29:06.866Z,1011.08
2017-10-18T00:29:32.990Z,1011.08
2017-10-18T00:29:59.108Z,1011.07
2017-10-18T00:30:25.266Z,1011.08
2017-10-18T00:30:51.390Z,1011.07
2017-10-18T00:31:17.514Z,1011.05
2017-10-18T00:31:43.635Z,1011.05
2017-10-18T00:32:09.779Z,1011.05
2017-10-18T00:32:35.894Z,1011.01
2017-10-18T00:33:02.019Z,1011.02
2017-10-18T00:33:28.142Z,1011.01
2017-10-18T00:33:54.269Z,1011.01
2017-10-18T00:34:20.414Z,1011.01
2017-10-18T00:34:46.534Z,1010.98
2017-10-18T00:35:12.658Z,1010.98
2017-10-18T00:35:38.777Z,1010.98
2017-10-18T00:36:04.903Z,1010.95
2017-10-18T00:36:31.019Z,1010.93
2017-10-18T00:36:57.147Z,1010.91
2017-10-18T00:37:23.268Z,1010.95
2017-10-18T00:37:49.394Z,1010.9
2017-10-18T00:38:15.516Z,1010.92
2017-10-18T00:38:41.662Z,1010.89
2017-10-18T00:39:07.784Z,1010.86
2017-10-18T00:39:33.906Z,1010.84
2017-10-18T00:40:00.027Z,1010.83
2017-10-18T00:40:26.146Z,1010.86
2017-10-18T00:40:52.283Z,1010.87
2017-10-18T00:41:18.403Z,1010.83
2017-10-18T00:41:44.540Z,1010.83
2017-10-18T00:42:10.650Z,1010.84
2017-10-18T00:42:36.775Z,1010.83
2017-10-18T00:43:02.903Z,1010.84
2017-10-18T00:43:29.028Z,1010.81
2017-10-18T00:43:55.149Z,1010.82
2017-10-18T00:44:21.277Z,1010.77
2017-10-18T00:44:47.395Z,1010.81
2017-10-18T00:45:13.514Z,1010.83
2017-10-18T00:45:39.633Z,1010.81
2017-10-18T00:46:05.759Z,1010.79
2017-10-18T00:46:31.891Z,1010.81
2017-10-18T00:46:58.012Z,1010.79
2017-10-18T00:47:24.139Z,1010.82
2017-10-18T00:47:50.263Z,1010.78
2017-10-18T00:48:16.383Z,1010.8
2017-10-18T00:48:42.502Z,1010.78
2017-10-18T00:49:08.625Z,1010.77
2017-10-18T00:49:34.758Z,1010.76
2017-10-18T00:50:00.876Z,1010.78
2017-10-18T00:50:26.998Z,1010.79
2017-10-18T00:50:53.117Z,1010.76
2017-10-18T00:51:19.246Z,1010.72
2017-10-18T00:51:45.388Z,1010.73
2017-10-18T00:52:11.508Z,1010.74
2017-10-18T00:52:37.632Z,1010.74
2017-10-18T00:53:03.761Z,1010.73
2017-10-18T00:53:29.879Z,1010.74
2017-10-18T00:53:56.001Z,1010.7
2017-10-18T00:54:22.129Z,1010.72
2017-10-18T00:54:48.247Z,1010.73
2017-10-18T00:55:14.375Z,1010.7
2017-10-18T00:55:40.499Z,1010.67
2017-10-18T00:56:06.618Z,1010.73
2017-10-18T00:56:32.748Z,1010.72
2017-10-18T00:56:58.867Z,1010.71
2017-10-18T00:57:24.988Z,1010.7
2017-10-18T00:57:51.115Z,1010.72
2017-10-18T00:58:17.235Z,1010.72
2017-10-18T00:58:43.362Z,1010.72
2017-10-18T00:59:09.483Z,1010.74
2017-10-18T00:59:35.603Z,1010.73
2017-10-18T01:00:01.721Z,1010.73
2017-10-18T01:00:27.875Z,1010.74
2017-10-18T01:00:53.992Z,1010.73
2017-10-18T01:01:20.119Z,1010.74
2017-10-18T01:01:46.237Z,1010.73
2017-10-18T01:02:12.358Z,1010.74
2017-10-18T01:02:38.488Z,1010.73
2017-10-18T01:03:04.609Z,1010.71
2017-10-18T01:03:30.728Z,1010.74
2017-10-18T01:03:56.855Z,1010.74
2017-10-18T01:04:22.989Z,1010.73
2017-10-18T01:04:49.098Z,1010.73
2017-10-18T01:05:15.217Z,1010.72
2017-10-18T01:05:41.345Z,1010.7
2017-10-18T01:06:07.488Z,1010.72
2017-10-18T01:06:33.652Z,1010.72
2017-10-18T01:06:59.778Z,1010.71
2017-10-18T01:07:25.895Z,1010.69
2017-10-18T01:07:52.020Z,1010.68
2017-10-18T01:08:18.144Z,1010.68
2017-10-18T01:08:44.262Z,1010.66
2017-10-18T01:09:10.392Z,1010.68
2017-10-18T01:09:36.513Z,1010.63
2017-10-18T01:10:02.633Z,1010.64
2017-10-18T01:10:28.758Z,1010.65
2017-10-18T01:10:54.877Z,1010.62
2017-10-18T01:11:21.021Z,1010.61
2017-10-18T01:11:47.148Z,1010.65
2017-10-18T01:12:13.266Z,1010.63
2017-10-18T01:12:39.392Z,1010.62
2017-10-18T01:13:05.512Z,1010.61
2017-10-18T01:13:31.637Z,1010.61
2017-10-18T01:13:57.763Z,1010.59
2017-10-18T01:14:23.884Z,1010.61
2017-10-18T01:14:50.003Z,1010.59
2017-10-18T01:15:16.141Z,1010.58
2017-10-18T01:15:42.263Z,1010.58
2017-10-18T01:16:08.383Z,1010.62
2017-10-18T01:16:34.508Z,1010.61
2017-10-18T01:17:00.628Z,1010.61
2017-10-18T01:17:26.746Z,1010.58
2017-10-18T01:17:52.873Z,1010.6
2017-10-18T01:18:18.997Z,1010.63
2017-10-18T01:18:45.113Z,1010.61
2017-10-18T01:19:11.232Z,1010.58
2017-10-18T01:19:37.357Z,1010.61
2017-10-18T01:20:03.478Z,1010.55
2017-10-18T01:20:29.606Z,1010.6
2017-10-18T01:20:55.742Z,1010.59
2017-10-18T01:21:21.869Z,1010.57
2017-10-18T01:21:47.992Z,1010.58
2017-10-18T01:22:14.119Z,1010.57
2017-10-18T01:22:40.241Z,1010.54
2017-10-18T01:23:06.363Z,1010.55
2017-10-18T01:23:32.488Z,1010.53
2017-10-18T01:23:58.606Z,1010.53
2017-10-18T01:24:24.729Z,1010.5
2017-10-18T01:24:50.845Z,1010.51
2017-10-18T01:25:16.977Z,1010.51
2017-10-18T01:25:43.101Z,1010.5
2017-10-18T01:26:09.219Z,1010.45
2017-10-18T01:26:35.343Z,1010.45
2017-10-18T01:27:01.469Z,1010.47
2017-10-18T01:27:27.589Z,1010.5
2017-10-18T01:27:53.732Z,1010.48
2017-10-18T01:28:19.861Z,1010.44
2017-10-18T01:28:45.984Z,1010.45
2017-10-18T01:29:12.101Z,1010.44
2017-10-18T01:29:38.222Z,1010.43
2017-10-18T01:30:04.347Z,1010.47
2017-10-18T01:30:30.470Z,1010.44
2017-10-18T01:30:56.593Z,1010.43
2017-10-18T01:31:22.738Z,1010.42
2017-10-18T01:31:48.866Z,1010.41
2017-10-18T01:32:14.993Z,1010.43
2017-10-18T01:32:41.110Z,1010.43
2017-10-18T01:33:07.229Z,1010.42
2017-10-18T01:33:33.353Z,1010.38
2017-10-18T01:33:59.474Z,1010.41
2017-10-18T01:34:25.601Z,1010.4
2017-10-18T01:34:51.727Z,1010.41
2017-10-18T01:35:17.846Z,1010.4
2017-10-18T01:35:43.974Z,1010.4
2017-10-18T01:36:10.090Z,1010.37
2017-10-18T01:36:36.213Z,1010.4
2017-10-18T01:37:02.341Z,1010.39
2017-10-18T01:37:28.460Z,1010.4
2017-10-18T01:37:54.584Z,1010.4
2017-10-18T01:38:20.710Z,1010.39
2017-10-18T01:38:46.827Z,1010.38
2017-10-18T01:39:12.967Z,1010.4
2017-10-18T01:39:39.093Z,1010.39
2017-10-18T01:40:05.217Z,1010.4
2017-10-18T01:40:31.334Z,1010.38
2017-10-18T01:40:57.466Z,1010.4
2017-10-18T01:41:23.606Z,1010.4
2017-10-18T01:41:49.726Z,1010.41
2017-10-18T01:42:15.855Z,1010.39
2017-10-18T01:42:41.974Z,1010.43
2017-10-18T01:43:08.102Z,1010.43
2017-10-18T01:43:34.219Z,1010.44
2017-10-18T01:44:00.341Z,1010.45
2017-10-18T01:44:26.461Z,1010.45
2017-10-18T01:44:52.592Z,1010.45
2017-10-18T01:45:18.713Z,1010.49
2017-10-18T01:45:44.840Z,1010.44
2017-10-18T01:46:10.959Z,1010.48
2017-10-18T01:46:37.085Z,1010.44
2017-10-18T01:47:03.203Z,1010.48
2017-10-18T01:47:29.337Z,1010.44
2017-10-18T01:47:55.455Z,1010.45
2017-10-18T01:48:21.580Z,1010.49
2017-10-18T01:48:47.697Z,1010.47
2017-10-18T01:49:13.821Z,1010.45
2017-10-18T01:49:39.943Z,1010.43
2017-10-18T01:50:06.061Z,1010.45
2017-10-18T01:50:32.189Z,1010.42
2017-10-18T01:50:58.312Z,1010.46
2017-10-18T01:51:24.428Z,1010.43
2017-10-18T01:51:50.552Z,1010.43
2017-10-18T01:52:16.707Z,1010.41
2017-10-18T01:52:42.816Z,1010.42
2017-10-18T01:53:08.939Z,1010.44
2017-10-18T01:53:35.061Z,1010.44
2017-10-18T01:54:01.184Z,1010.42
2017-10-18T01:54:27.308Z,1010.43
2017-10-18T01:54:53.439Z,1010.4
2017-10-18T01:55:19.559Z,1010.44
2017-10-18T01:55:45.678Z,1010.41
2017-10-18T01:56:11.808Z,1010.41
2017-10-18T01:56:37.927Z,1010.41
2017-10-18T01:57:04.089Z,1010.39
2017-10-18T01:57:30.194Z,1010.41
2017-10-18T01:57:56.344Z,1010.42
2017-10-18T01:58:22.459Z,1010.39
2017-10-18T01:58:48.590Z,1010.43
2017-10-18T01:59:14.716Z,1010.41
2017-10-18T01:59:40.834Z,1010.42
2017-10-18T02:00:06.960Z,1010.43
2017-10-18T02:00:33.077Z,1010.41
2017-10-18T02:00:59.206Z,1010.39
2017-10-18T02:01:25.328Z,1010.38
2017-10-18T02:01:51.447Z,1010.4
2017-10-18T02:02:17.574Z,1010.42
2017-10-18T02:02:43.689Z,1010.41
2017-10-18T02:03:09.817Z,1010.4
2017-10-18T02:03:35.960Z,1010.4
2017-10-18T02:04:02.077Z,1010.43
2017-10-18T02:04:28.204Z,1010.41
2017-10-18T02:04:54.324Z,1010.42
2017-10-18T02:05:20.446Z,1010.4
2017-10-18T02:05:46.573Z,1010.39
2017-10-18T02:06:12.695Z,1010.38
2017-10-18T02:06:38.812Z,1010.39
2017-10-18T02:07:04.940Z,1010.38
2017-10-18T02:07:31.063Z,1010.38
2017-10-18T02:07:57.179Z,1010.37
2017-10-18T02:08:23.332Z,1010.4
2017-10-18T02:08:49.458Z,1010.37
2017-10-18T02:09:15.582Z,1010.38
2017-10-18T02:09:41.703Z,1010.35
2017-10-18T02:10:07.826Z,1010.36
2017-10-18T02:10:33.942Z,1010.36
2017-10-18T02:11:00.072Z,1010.32
2017-10-18T02:11:26.191Z,1010.33
2017-10-18T02:11:52.309Z,1010.34
2017-10-18T02:12:18.430Z,1010.34
2017-10-18T02:12:44.550Z,1010.35
2017-10-18T02:13:10.674Z,1010.31
2017-10-18T02:13:36.803Z,1010.33
2017-10-18T02:14:02.927Z,1010.31
2017-10-18T02:14:29.048Z,1010.31
2017-10-18T02:14:55.175Z,1010.26
2017-10-18T02:15:21.299Z,1010.3
2017-10-18T02:15:47.447Z,1010.29
2017-10-18T02:16:13.570Z,1010.31
2017-10-18T02:16:39.712Z,1010.33
2017-10-18T02:17:05.831Z,1010.32
2017-10-18T02:17:31.949Z,1010.3
2017-10-18T02:17:58.081Z,1010.3
2017-10-18T02:18:24.197Z,1010.28
2017-10-18T02:18:50.325Z,1010.3
2017-10-18T02:19:16.473Z,1010.3
2017-10-18T02:19:42.594Z,1010.3
2017-10-18T02:20:08.711Z,1010.29
2017-10-18T02:20:34.840Z,1010.34
2017-10-18T02:21:00.992Z,1010.32
2017-10-18T02:21:27.081Z,1010.34
2017-10-18T02:21:53.214Z,1010.36
2017-10-18T02:22:19.327Z,1010.34
2017-10-18T02:22:45.453Z,1010.38
2017-10-18T02:23:11.579Z,1010.36
2017-10-18T02:23:37.719Z,1010.37
2017-10-18T02:24:03.840Z,1010.38
2017-10-18T02:24:29.968Z,1010.37
2017-10-18T02:24:56.087Z,1010.37
2017-10-18T02:25:22.214Z,1010.38
2017-10-18T02:25:48.336Z,1010.37
2017-10-18T02:26:14.452Z,1010.33
2017-10-18T02:26:40.580Z,1010.37
2017-10-18T02:27:06.704Z,1010.36
2017-10-18T02:27:32.842Z,1010.35
2017-10-18T02:27:58.965Z,1010.35
2017-10-18T02:28:25.089Z,1010.37
2017-10-18T02:28:51.216Z,1010.35
2017-10-18T02:29:17.335Z,1010.32
2017-10-18T02:29:43.459Z,1010.34
2017-10-18T02:30:09.588Z,1010.34
2017-10-18T02:30:35.706Z,1010.36
2017-10-18T02:31:01.832Z,1010.31
2017-10-18T02:31:27.946Z,1010.32
2017-10-18T02:31:54.098Z,1010.32
2017-10-18T02:32:20.226Z,1010.31
2017-10-18T02:32:46.352Z,1010.34
2017-10-18T02:33:12.469Z,1010.31
2017-10-18T02:33:38.593Z,1010.3
2017-10-18T02:34:04.720Z,1010.28
2017-10-18T02:34:30.840Z,1010.27
2017-10-18T02:34:56.962Z,1010.27
2017-10-18T02:35:23.080Z,1010.23
2017-10-18T02:35:49.203Z,1010.28
2017-10-18T02:36:15.354Z,1010.26
2017-10-18T02:36:41.471Z,1010.26
2017-10-18T02:37:07.595Z,1010.26
2017-10-18T02:37:33.713Z,1010.22
2017-10-18T02:37:59.841Z,1010.25
2017-10-18T02:38:25.967Z,1010.22
2017-10-18T02:38:52.086Z,1010.23
2017-10-18T02:39:18.214Z,1010.23
2017-10-18T02:39:44.333Z,1010.17
2017-10-18T02:40:10.452Z,1010.19
2017-10-18T02:40:36.579Z,1010.2
2017-10-18T02:41:02.706Z,1010.19
2017-10-18T02:41:28.826Z,1010.16
2017-10-18T02:41:54.954Z,1010.16
2017-10-18T02:42:21.069Z,1010.12
2017-10-18T02:42:47.200Z,1010.1
2017-10-18T02:43:13.335Z,1010.12
2017-10-18T02:43:39.456Z,1010.13
2017-10-18T02:44:05.587Z,1010.1
2017-10-18T02:44:31.703Z,1010.08
2017-10-18T02:44:57.835Z,1010.13
2017-10-18T02:45:23.952Z,1010.09
2017-10-18T02:45:50.078Z,1010.1
2017-10-18T02:46:16.202Z,1010.08
2017-10-18T02:46:42.320Z,1010.07
2017-10-18T02:47:08.446Z,1010.07
2017-10-18T02:47:34.568Z,1010.08
2017-10-18T02:48:00.690Z,1010.09
2017-10-18T02:48:26.809Z,1010.05
2017-10-18T02:48:52.941Z,1010.09
2017-10-18T02:49:19.078Z,1010.07
2017-10-18T02:49:45.195Z,1010.06
2017-10-18T02:50:11.320Z,1010.07
2017-10-18T02:50:37.440Z,1010.06
2017-10-18T02:51:03.565Z,1010.09
2017-10-18T02:51:29.694Z,1010.05
2017-10-18T02:51:55.844Z,1010.06
2017-10-18T02:52:21.974Z,1010.07
2017-10-18T02:52:48.107Z,1010.11
2017-10-18T02:53:14.233Z,1010.1
2017-10-18T02:53:40.357Z,1010.09
2017-10-18T02:54:06.486Z,1010.09
2017-10-18T02:54:32.617Z,1010.11
2017-10-18T02:54:58.730Z,1010.12
2017-10-18T02:55:24.851Z,1010.16
2017-10-18T02:55:50.968Z,1010.14
2017-10-18T02:56:17.096Z,1010.16
2017-10-18T02:56:43.214Z,1010.17
2017-10-18T02:57:09.341Z,1010.16
2017-10-18T02:57:35.461Z,1010.16
2017-10-18T02:58:01.576Z,1010.13
2017-10-18T02:58:27.708Z,1010.13
2017-10-18T02:58:53.825Z,1010.11
2017-10-18T02:59:19.948Z,1010.12
2017-10-18T02:59:46.089Z,1010.1
2017-10-18T03:00:12.212Z,1010.07
2017-10-18T03:00:38.338Z,1010.11
2017-10-18T03:01:04.460Z,1010.03
2017-10-18T03:01:30.587Z,1010.05
2017-10-18T03:01:56.711Z,1010.03
2017-10-18T03:02:22.830Z,1010.05
2017-10-18T03:02:48.959Z,1010.03
2017-10-18T03:03:15.076Z,1010.01
2017-10-18T03:03:41.199Z,1009.99
2017-10-18T03:04:07.326Z,1010
2017-10-18T03:04:33.443Z,1010.01
2017-10-18T03:04:59.574Z,1010.01
2017-10-18T03:05:25.699Z,1010.02
2017-10-18T03:05:51.817Z,1010
2017-10-18T03:06:17.946Z,1010.01
2017-10-18T03:06:44.085Z,1010.01
2017-10-18T03:07:10.212Z,1010
2017-10-18T03:07:36.330Z,1010
2017-10-18T03:08:02.456Z,1010.01
2017-10-18T03:08:28.575Z,1010.02
2017-10-18T03:08:54.702Z,1010.01
2017-10-18T03:09:20.820Z,1010
2017-10-18T03:09:46.942Z,1010.01
2017-10-18T03:10:13.069Z,1010.01
2017-10-18T03:10:39.192Z,1010
2017-10-18T03:11:05.308Z,1010
2017-10-18T03:11:31.446Z,1010.03
2017-10-18T03:11:57.601Z,1010.02
2017-10-18T03:12:23.705Z,1010.01
2017-10-18T03:12:49.842Z,1010.03
2017-10-18T03:13:15.964Z,1010.02
2017-10-18T03:13:42.087Z,1010.03
2017-10-18T03:14:08.212Z,1010.04
2017-10-18T03:14:34.338Z,1010.02
2017-10-18T03:15:00.458Z,1010.02
2017-10-18T03:15:26.585Z,1010.02
2017-10-18T03:15:52.712Z,1010.03
2017-10-18T03:16:18.823Z,1010.03
2017-10-18T03:16:44.951Z,1010.01
2017-10-18T03:17:11.069Z,1010.03
2017-10-18T03:17:37.190Z,1009.99
2017-10-18T03:18:03.311Z,1010.04
2017-10-18T03:18:29.439Z,1010.02
2017-10-18T03:18:55.563Z,1010.02
2017-10-18T03:19:21.691Z,1010
2017-10-18T03:19:47.834Z,1010.02
2017-10-18T03:20:13.951Z,1010
2017-10-18T03:20:40.069Z,1010.03
2017-10-18T03:21:06.196Z,1010.01
2017-10-18T03:21:32.320Z,1010
2017-10-18T03:21:58.439Z,1010
2017-10-18T03:22:24.563Z,1009.99
2017-10-18T03:22:50.685Z,1009.99
2017-10-18T03:23:16.809Z,1009.98
2017-10-18T03:23:42.929Z,1009.95
2017-10-18T03:24:09.057Z,1009.96
2017-10-18T03:24:35.181Z,1009.96
2017-10-18T03:25:01.303Z,1009.91
2017-10-18T03:25:27.433Z,1009.95
2017-10-18T03:25:53.552Z,1009.93
2017-10-18T03:26:25.944Z,1009.93
2017-10-18T03:26:52.062Z,1009.95
2017-10-18T03:27:18.192Z,1009.97
2017-10-18T03:27:44.309Z,1009.92
2017-10-18T03:28:10.429Z,1009.93
2017-10-18T03:28:36.578Z,1009.91
2017-10-18T03:29:02.698Z,1009.95
2017-10-18T03:29:28.826Z,1009.95
2017-10-18T03:29:54.943Z,1009.93
2017-10-18T03:30:21.112Z,1009.94
2017-10-18T03:30:47.217Z,1009.91
2017-10-18T03:31:13.336Z,1009.93
2017-10-18T03:31:39.462Z,1009.92
2017-10-18T03:32:05.584Z,1009.9
2017-10-18T03:32:31.705Z,1009.9
2017-10-18T03:32:57.841Z,1009.89
2017-10-18T03:33:23.972Z,1009.89
2017-10-18T03:33:50.102Z,1009.9
2017-10-18T03:34:16.228Z,1009.87
2017-10-18T03:34:42.352Z,1009.9
2017-10-18T03:35:08.472Z,1009.83
2017-10-18T03:35:34.594Z,1009.84
2017-10-18T03:36:00.719Z,1009.86
2017-10-18T03:36:26.842Z,1009.87
2017-10-18T03:36:52.967Z,1009.84
2017-10-18T03:37:19.086Z,1009.84
2017-10-18T03:37:45.213Z,1009.82
2017-10-18T03:38:11.331Z,1009.8
2017-10-18T03:38:37.450Z,1009.82
2017-10-18T03:39:03.575Z,1009.85
2017-10-18T03:39:29.696Z,1009.84
2017-10-18T03:39:55.818Z,1009.87
2017-10-18T03:40:21.939Z,1009.82
2017-10-18T03:40:48.067Z,1009.83
2017-10-18T03:41:14.193Z,1009.82
2017-10-18T03:41:40.313Z,1009.8
2017-10-18T03:42:06.442Z,1009.79
2017-10-18T03:42:32.559Z,1009.78
2017-10-18T03:42:58.688Z,1009.79
2017-10-18T03:43:24.812Z,1009.81
2017-10-18T03:43:50.928Z,1009.76
2017-10-18T03:44:17.075Z,1009.76
2017-10-18T03:44:43.203Z,1009.76
2017-10-18T03:45:09.318Z,1009.74
2017-10-18T03:45:35.442Z,1009.75
2017-10-18T03:46:01.569Z,1009.71
2017-10-18T03:46:27.685Z,1009.74
2017-10-18T03:46:53.812Z,1009.7
2017-10-18T03:47:19.937Z,1009.68
2017-10-18T03:47:46.060Z,1009.7
2017-10-18T03:48:12.182Z,1009.72
2017-10-18T03:48:38.312Z,1009.72
2017-10-18T03:49:04.431Z,1009.68
2017-10-18T03:49:30.557Z,1009.69
2017-10-18T03:49:56.671Z,1009.67
2017-10-18T03:50:22.797Z,1009.66
2017-10-18T03:50:48.923Z,1009.64
2017-10-18T03:51:15.042Z,1009.66
2017-10-18T03:51:41.165Z,1009.67
2017-10-18T03:52:07.282Z,1009.64
2017-10-18T03:52:33.408Z,1009.62
2017-10-18T03:52:59.534Z,1009.62
2017-10-18T03:53:25.652Z,1009.59
2017-10-18T03:53:51.782Z,1009.59
2017-10-18T03:54:17.908Z,1009.57
2017-10-18T03:54:44.025Z,1009.57
2017-10-18T03:55:10.144Z,1009.6
2017-10-18T03:55:36.267Z,1009.57
2017-10-18T03:56:02.386Z,1009.55
2017-10-18T03:56:28.514Z,1009.56
2017-10-18T03:56:54.633Z,1009.55
2017-10-18T03:57:20.758Z,1009.55
2017-10-18T03:57:46.876Z,1009.55
2017-10-18T03:58:13.009Z,1009.5
2017-10-18T03:58:39.128Z,1009.55
2017-10-18T03:59:05.267Z,1009.54
2017-10-18T03:59:31.388Z,1009.58
2017-10-18T03:59:57.516Z,1009.56
2017-10-18T04:00:23.640Z,1009.56
2017-10-18T04:00:49.760Z,1009.57
2017-10-18T04:01:15.901Z,1009.56
2017-10-18T04:01:42.019Z,1009.59
2017-10-18T04:02:08.147Z,1009.57
2017-10-18T04:02:34.265Z,1009.61
2017-10-18T04:03:00.389Z,1009.54
2017-10-18T04:03:26.516Z,1009.58
2017-10-18T04:03:52.632Z,1009.6
2017-10-18T04:04:18.760Z,1009.59
2017-10-18T04:04:44.877Z,1009.57
2017-10-18T04:05:11.006Z,1009.57
2017-10-18T04:05:37.133Z,1009.56
2017-10-18T04:06:03.250Z,1009.53
2017-10-18T04:06:29.371Z,1009.53
2017-10-18T04:06:55.518Z,1009.54
2017-10-18T04:07:21.637Z,1009.53
2017-10-18T04:07:47.762Z,1009.53
2017-10-18T04:08:13.887Z,1009.53
2017-10-18T04:08:40.008Z,1009.52
2017-10-18T04:09:06.133Z,1009.5
2017-10-18T04:09:32.251Z,1009.56
2017-10-18T04:09:58.370Z,1009.55
2017-10-18T04:10:24.501Z,1009.53
2017-10-18T04:10:50.619Z,1009.5
2017-10-18T04:11:16.740Z,1009.54
2017-10-18T04:11:42.867Z,1009.56
2017-10-18T04:12:08.990Z,1009.53
2017-10-18T04:12:35.103Z,1009.55
2017-10-18T04:13:01.232Z,1009.57
2017-10-18T04:13:27.352Z,1009.57
2017-10-18T04:13:53.482Z,1009.57
2017-10-18T04:14:19.608Z,1009.56
2017-10-18T04:14:45.722Z,1009.55
2017-10-18T04:15:11.845Z,1009.55
2017-10-18T04:15:37.963Z,1009.53
2017-10-18T04:16:04.093Z,1009.5
2017-10-18T04:16:30.209Z,1009.51
2017-10-18T04:16:56.330Z,1009.49
2017-10-18T04:17:22.455Z,1009.5
2017-10-18T04:17:48.578Z,1009.55
2017-10-18T04:18:14.719Z,1009.56
2017-10-18T04:18:40.846Z,1009.57
2017-10-18T04:19:06.973Z,1009.56
2017-10-18T04:19:33.101Z,1009.57
2017-10-18T04:19:59.238Z,1009.56
2017-10-18T04:20:25.366Z,1009.54
2017-10-18T04:20:51.485Z,1009.52
2017-10-18T04:21:17.612Z,1009.55
2017-10-18T04:21:43.733Z,1009.52
2017-10-18T04:22:09.852Z,1009.55
2017-10-18T04:22:35.978Z,1009.54
2017-10-18T04:23:02.144Z,1009.52
2017-10-18T04:23:28.237Z,1009.47
2017-10-18T04:23:54.358Z,1009.5
2017-10-18T04:24:20.483Z,1009.49
2017-10-18T04:24:46.604Z,1009.48
2017-10-18T04:25:12.733Z,1009.47
2017-10-18T04:25:38.853Z,1009.47
2017-10-18T04:26:04.980Z,1009.43
2017-10-18T04:26:31.104Z,1009.47
2017-10-18T04:26:57.220Z,1009.47
2017-10-18T04:27:23.347Z,1009.44
2017-10-18T04:27:49.470Z,1009.43
2017-10-18T04:28:15.587Z,1009.4
2017-10-18T04:28:41.732Z,1009.44
2017-10-18T04:29:07.832Z,1009.38
2017-10-18T04:29:33.960Z,1009.38
2017-10-18T04:30:00.088Z,1009.39
2017-10-18T04:30:26.211Z,1009.41
2017-10-18T04:30:52.333Z,1009.42
2017-10-18T04:31:18.453Z,1009.39
2017-10-18T04:31:44.602Z,1009.35
2017-10-18T04:32:11.547Z,1009.38
2017-10-18T04:32:37.680Z,1009.32
2017-10-18T04:33:03.797Z,1009.34
2017-10-18T04:33:29.917Z,1009.33
2017-10-18T04:33:56.039Z,1009.34
2017-10-18T04:34:22.158Z,1009.3
2017-10-18T04:34:48.282Z,1009.36
2017-10-18T04:35:14.406Z,1009.29
2017-10-18T04:35:40.532Z,1009.29
2017-10-18T04:36:06.679Z,1009.29
2017-10-18T04:36:32.804Z,1009.28
2017-10-18T04:36:58.924Z,1009.27
2017-10-18T04:37:25.042Z,1009.3
2017-10-18T04:37:51.168Z,1009.31
2017-10-18T04:38:17.298Z,1009.29
2017-10-18T04:38:43.418Z,1009.29
2017-10-18T04:39:09.540Z,1009.3
2017-10-18T04:39:35.660Z,1009.31
2017-10-18T04:40:01.778Z,1009.25
2017-10-18T04:40:27.899Z,1009.3
2017-10-18T04:40:54.026Z,1009.3
2017-10-18T04:41:20.146Z,1009.28
2017-10-18T04:41:46.272Z,1009.29
2017-10-18T04:42:12.391Z,1009.29
2017-10-18T04:42:38.518Z,1009.26
2017-10-18T04:43:04.636Z,1009.25
2017-10-18T04:43:30.764Z,1009.25
2017-10-18T04:43:56.889Z,1009.26
2017-10-18T04:44:23.013Z,1009.28
2017-10-18T04:44:49.128Z,1009.3
2017-10-18T04:45:15.255Z,1009.29
2017-10-18T04:45:41.379Z,1009.31
2017-10-18T04:46:07.497Z,1009.29
2017-10-18T04:46:33.626Z,1009.32
2017-10-18T04:46:59.743Z,1009.31
2017-10-18T04:47:25.866Z,1009.29
2017-10-18T04:47:51.991Z,1009.31
2017-10-18T04:48:18.110Z,1009.28
2017-10-18T04:48:44.239Z,1009.28
2017-10-18T04:49:10.365Z,1009.24
2017-10-18T04:49:36.488Z,1009.28
2017-10-18T04:50:02.604Z,1009.27
2017-10-18T04:50:28.733Z,1009.26
2017-10-18T04:50:54.858Z,1009.26
2017-10-18T04:51:20.976Z,1009.24
2017-10-18T04:51:47.106Z,1009.23
2017-10-18T04:52:13.248Z,1009.23
2017-10-18T04:52:39.367Z,1009.22
2017-10-18T04:53:05.493Z,1009.27
2017-10-18T04:53:31.613Z,1009.24
2017-10-18T04:53:57.731Z,1009.23
2017-10-18T04:54:23.862Z,1009.23
2017-10-18T04:54:49.995Z,1009.2
2017-10-18T04:55:16.116Z,1009.23
2017-10-18T04:55:42.240Z,1009.2
2017-10-18T04:56:08.376Z,1009.21
2017-10-18T04:56:34.492Z,1009.21
2017-10-18T04:57:00.611Z,1009.18
2017-10-18T04:57:26.738Z,1009.18
2017-10-18T04:57:52.881Z,1009.18
2017-10-18T04:58:19.007Z,1009.16
2017-10-18T04:58:45.140Z,1009.13
2017-10-18T04:59:11.265Z,1009.13
2017-10-18T04:59:37.388Z,1009.13
2017-10-18T05:00:03.507Z,1009.1
2017-10-18T05:00:29.633Z,1009.12
2017-10-18T05:00:55.752Z,1009.09
2017-10-18T05:01:21.893Z,1009.11
2017-10-18T05:01:48.020Z,1009.12
2017-10-18T05:02:14.138Z,1009.14
2017-10-18T05:02:40.261Z,1009.07
2017-10-18T05:03:06.393Z,1009.08
2017-10-18T05:03:32.510Z,1009.07
2017-10-18T05:03:58.632Z,1009.03
2017-10-18T05:04:24.759Z,1009.08
2017-10-18T05:04:50.885Z,1009.05
2017-10-18T05:05:17.005Z,1009.05
2017-10-18T05:05:43.132Z,1009.05
2017-10-18T05:06:09.250Z,1009.03
2017-10-18T05:06:35.375Z,1009.09
2017-10-18T05:07:01.499Z,1009.01
2017-10-18T05:07:27.617Z,1009.06
2017-10-18T05:07:53.744Z,1009.05
2017-10-18T05:08:19.869Z,1009.03
2017-10-18T05:08:45.988Z,1009.04
2017-10-18T05:09:12.109Z,1009.03
2017-10-18T05:09:38.234Z,1009.06
2017-10-18T05:10:04.366Z,1009.05
2017-10-18T05:10:30.482Z,1009.06
2017-10-18T05:10:56.601Z,1009.07
2017-10-18T05:11:22.729Z,1009.06
2017-10-18T05:11:48.852Z,1009.09
2017-10-18T05:12:14.970Z,1009.06
2017-10-18T05:12:41.095Z,1009.05
2017-10-18T05:13:07.229Z,1009.04
2017-10-18T05:13:33.345Z,1008.98
2017-10-18T05:13:59.465Z,1009
2017-10-18T05:14:25.582Z,1009.01
2017-10-18T05:14:51.710Z,1009.02
2017-10-18T05:15:17.830Z,1008.99
2017-10-18T05:15:43.948Z,1009.01
2017-10-18T05:16:10.073Z,1008.97
2017-10-18T05:16:36.192Z,1008.96
2017-10-18T05:17:02.330Z,1008.9
2017-10-18T05:17:28.448Z,1008.93
2017-10-18T05:17:54.587Z,1008.93